powered by Meteolive.it
Dati meteo   Attuali  Passati Ogni 3 ore 7 Giorni 15 Giorni Avvisi Meteo Mappe meteo
Roma / Urbe, Italy
Alba: 4:35 AM UTC1
Tramonto: 7:48 PM UTC1
 Lat: 41.95N, Lon: 12.50E
ICAO Usato: LIRU
Condizioni Meteo Attuali Aggiornate: 25.06.2017 alle 09:50 LT
Foschia
Foschia
Sereno
Foschia
Temp: 23°C
Umidita': 89%
Direz/Vel. Vento: variabile 02 KTS raffiche
Pressione: 1015 hPa
Punto di rugiada: 21°C
Temperatura percepita: 24°C
Visibilitą: 5000 m.
Temperatura percepita in
presenza di vento (Wind Chill)
:
N/D
T. max (ultime 24 ore): 23°C
T. min (ultime 24 ore): 23°C


METAR ORIGINALE
LIRU 250550Z VRB02KT 5000 BR NSC 23/21 Q1015